createdAt,value
2022-11-03T00:02:42.732Z,7.33
2022-11-03T00:07:46.552Z,7.17
2022-11-03T00:12:50.571Z,7.05
2022-11-03T00:17:54.860Z,7.00
2022-11-03T00:22:58.781Z,6.95
2022-11-03T00:33:07.620Z,6.77
2022-11-03T00:38:12.420Z,6.67
2022-11-03T00:43:16.572Z,6.63
2022-11-03T00:48:30.397Z,6.62
2022-11-03T00:53:45.363Z,6.57
2022-11-03T00:58:51.717Z,6.46
2022-11-03T01:04:16.606Z,6.36
2022-11-03T01:09:24.133Z,6.27
2022-11-03T01:14:32.066Z,6.20
2022-11-03T01:19:36.452Z,6.16
2022-11-03T01:24:41.895Z,6.17
2022-11-03T01:29:46.662Z,6.13
2022-11-03T01:34:50.843Z,6.09
2022-11-03T01:39:54.838Z,6.04
2022-11-03T01:44:59.610Z,5.94
2022-11-03T01:50:08.832Z,5.83
2022-11-03T01:55:20.396Z,5.74
2022-11-03T02:00:24.719Z,5.64
2022-11-03T02:05:29.875Z,5.49
2022-11-03T02:10:35.785Z,5.39
2022-11-03T02:15:40.810Z,5.27
2022-11-03T02:20:48.844Z,5.15
2022-11-03T02:25:55.631Z,5.03
2022-11-03T02:31:11.145Z,4.90
2022-11-03T02:36:46.289Z,4.77
2022-11-03T02:41:53.172Z,4.74
2022-11-03T02:47:01.636Z,4.76
2022-11-03T02:52:07.526Z,4.66
2022-11-03T02:57:21.746Z,4.54
2022-11-03T03:02:36.221Z,4.36
2022-11-03T03:07:46.886Z,4.19
2022-11-03T03:12:58.150Z,4.02
2022-11-03T03:18:17.262Z,3.93
2022-11-03T03:23:36.883Z,3.92
2022-11-03T03:28:54.823Z,3.86
2022-11-03T03:34:04.909Z,3.80
2022-11-03T03:39:25.042Z,3.74
2022-11-03T03:44:30.708Z,3.63
2022-11-03T03:49:34.990Z,3.57
2022-11-03T03:54:39.945Z,3.50
2022-11-03T03:59:45.250Z,3.38
2022-11-03T04:04:49.673Z,3.34
2022-11-03T04:09:54.067Z,3.32
2022-11-03T04:15:17.808Z,3.31
2022-11-03T04:20:41.943Z,3.24
2022-11-03T04:25:53.076Z,3.13
2022-11-03T04:30:59.471Z,2.99
2022-11-03T04:36:20.004Z,2.92
2022-11-03T04:41:26.805Z,2.95
2022-11-03T04:46:31.986Z,2.97
2022-11-03T04:51:36.144Z,2.94
2022-11-03T04:56:41.386Z,2.90
2022-11-03T05:01:46.895Z,2.85
2022-11-03T05:06:53.338Z,2.78
2022-11-03T05:11:56.788Z,2.72
2022-11-03T05:17:01.698Z,2.74
2022-11-03T05:22:06.214Z,2.70
2022-11-03T05:27:17.459Z,2.63
2022-11-03T05:32:29.418Z,2.52
2022-11-03T05:37:35.792Z,2.44
2022-11-03T05:42:45.904Z,2.44
2022-11-03T05:47:53.992Z,2.45
2022-11-03T05:53:19.806Z,2.37
2022-11-03T05:58:36.106Z,2.37
2022-11-03T06:03:40.981Z,2.34
2022-11-03T06:08:46.437Z,2.40
2022-11-03T06:13:51.910Z,2.52
2022-11-03T06:18:56.477Z,2.52
2022-11-03T06:24:00.831Z,2.52
2022-11-03T06:29:05.547Z,2.60
2022-11-03T06:34:22.175Z,2.92
2022-11-03T06:39:27.466Z,3.66
2022-11-03T06:44:31.424Z,4.43
2022-11-03T06:49:36.599Z,5.24
2022-11-03T06:54:40.995Z,5.98
2022-11-03T06:59:46.080Z,6.75
2022-11-03T07:04:50.855Z,7.39
2022-11-03T07:09:55.870Z,7.66
2022-11-03T07:14:59.627Z,7.91
2022-11-03T07:20:04.771Z,8.27
2022-11-03T07:25:19.676Z,8.57
2022-11-03T07:30:37.838Z,8.70
2022-11-03T07:36:13.910Z,8.54
2022-11-03T07:41:19.190Z,8.37
2022-11-03T07:46:26.421Z,8.18
2022-11-03T07:51:35.334Z,8.11
2022-11-03T07:57:00.387Z,7.94
2022-11-03T08:02:26.143Z,7.95
2022-11-03T08:07:31.094Z,8.17
2022-11-03T08:12:35.922Z,8.33
2022-11-03T08:17:40.833Z,8.48
2022-11-03T08:22:59.103Z,8.79
2022-11-03T08:28:09.132Z,9.06
2022-11-03T08:33:12.773Z,9.25
2022-11-03T08:38:17.138Z,9.45
2022-11-03T08:43:21.848Z,9.63
2022-11-03T08:48:27.940Z,9.87
2022-11-03T08:53:34.887Z,10.08
2022-11-03T08:58:39.517Z,10.29
2022-11-03T09:03:44.481Z,10.39
2022-11-03T09:14:13.914Z,10.61
2022-11-03T09:19:18.932Z,10.70
2022-11-03T09:24:23.343Z,10.95
2022-11-03T09:29:32.845Z,11.10
2022-11-03T09:34:46.365Z,11.42
2022-11-03T09:39:52.149Z,11.63
2022-11-03T09:44:57.456Z,11.93
2022-11-03T09:50:03.113Z,12.17
2022-11-03T09:55:16.284Z,12.28
2022-11-03T10:00:23.408Z,12.44
2022-11-03T10:05:28.676Z,12.71
2022-11-03T10:10:33.989Z,12.84
2022-11-03T10:15:38.783Z,12.91
2022-11-03T10:20:43.677Z,13.00
2022-11-03T10:25:48.390Z,13.28
2022-11-03T10:31:11.169Z,13.49
2022-11-03T10:36:16.170Z,13.51
2022-11-03T10:41:24.092Z,13.56
2022-11-03T10:46:49.218Z,13.62
2022-11-03T10:51:54.956Z,13.75
2022-11-03T10:56:59.766Z,13.83
2022-11-03T11:02:12.357Z,13.99
2022-11-03T11:07:25.830Z,14.01
2022-11-03T11:12:29.951Z,14.11
2022-11-03T11:17:46.994Z,14.32
2022-11-03T11:22:51.934Z,14.48
2022-11-03T11:27:58.631Z,14.64
2022-11-03T11:33:22.912Z,14.80
2022-11-03T11:38:57.991Z,15.01
2022-11-03T11:44:40.716Z,15.10
2022-11-03T11:49:45.954Z,15.28
2022-11-03T11:54:49.944Z,15.17
2022-11-03T11:59:53.442Z,14.97
2022-11-03T12:05:04.580Z,14.85
2022-11-03T12:10:17.647Z,14.80
2022-11-03T12:15:50.455Z,14.76
2022-11-03T12:20:57.835Z,14.54
2022-11-03T12:26:06.539Z,14.51
2022-11-03T12:31:14.562Z,14.46
2022-11-03T12:36:19.318Z,14.33
2022-11-03T12:41:25.320Z,14.33
2022-11-03T12:46:29.618Z,14.31
2022-11-03T12:51:33.501Z,14.23
2022-11-03T12:56:37.882Z,14.14
2022-11-03T13:01:41.922Z,13.97
2022-11-03T13:06:45.944Z,13.95
2022-11-03T13:12:08.043Z,13.93
2022-11-03T13:17:14.602Z,13.96
2022-11-03T13:22:21.291Z,14.02
2022-11-03T13:27:24.609Z,14.07
2022-11-03T13:32:28.438Z,14.05
2022-11-03T13:37:32.357Z,13.89
2022-11-03T13:42:35.828Z,13.83
2022-11-03T13:48:15.517Z,13.76
2022-11-03T14:09:21.945Z,13.30
2022-11-03T14:14:25.677Z,13.06
2022-11-03T14:19:37.950Z,12.88
2022-11-03T14:24:45.644Z,12.73
2022-11-03T14:29:52.401Z,12.59
2022-11-03T14:34:56.463Z,12.41
2022-11-03T14:40:00.301Z,12.22
2022-11-03T14:45:05.212Z,11.96
2022-11-03T14:50:09.097Z,11.68
2022-11-03T14:55:13.329Z,11.38
2022-11-03T15:00:16.935Z,11.12
2022-11-03T15:05:39.238Z,10.93
2022-11-03T15:10:43.321Z,10.76
2022-11-03T15:15:47.524Z,10.45
2022-11-03T15:20:51.268Z,10.11
2022-11-03T15:25:56.747Z,9.93
2022-11-03T15:31:01.624Z,9.84
2022-11-03T15:36:07.577Z,9.79
2022-11-03T15:41:18.169Z,9.68
2022-11-03T15:46:22.487Z,9.52
2022-11-03T15:51:26.760Z,9.35
2022-11-03T15:56:30.758Z,9.17
2022-11-03T16:01:35.811Z,8.99
2022-11-03T16:07:06.118Z,8.75
2022-11-03T16:12:05.008Z,8.56
2022-11-03T16:17:09.040Z,8.37
2022-11-03T16:22:14.358Z,8.25
2022-11-03T16:27:19.515Z,8.17
2022-11-03T16:32:23.733Z,8.09
2022-11-03T16:37:29.595Z,7.98
2022-11-03T16:42:38.646Z,7.87
2022-11-03T16:47:42.280Z,7.79
2022-11-03T16:52:49.513Z,7.70
2022-11-03T16:57:53.407Z,7.62
2022-11-03T17:02:58.041Z,7.52
2022-11-03T17:08:03.163Z,7.42
2022-11-03T17:13:10.501Z,7.37
2022-11-03T17:18:15.480Z,7.30
2022-11-03T17:23:19.497Z,7.30
2022-11-03T17:28:23.686Z,7.38
2022-11-03T17:33:28.649Z,7.45
2022-11-03T17:38:33.775Z,7.56
2022-11-03T17:43:41.342Z,7.66
2022-11-03T17:48:48.035Z,7.77
2022-11-03T17:53:53.619Z,7.83
2022-11-03T17:59:00.172Z,7.85
2022-11-03T18:09:19.942Z,7.91
2022-11-03T18:14:26.955Z,7.92
2022-11-03T18:19:31.551Z,7.92
2022-11-03T18:24:35.889Z,7.90
2022-11-03T18:29:40.232Z,7.91
2022-11-03T18:34:44.840Z,7.92
2022-11-03T18:39:50.541Z,7.91
2022-11-03T18:45:02.662Z,7.92
2022-11-03T18:50:12.601Z,7.92
2022-11-03T18:55:20.324Z,7.93
2022-11-03T19:00:24.501Z,7.96
2022-11-03T19:05:30.258Z,8.02
2022-11-03T19:10:34.320Z,8.10
2022-11-03T19:15:38.804Z,8.19
2022-11-03T19:20:42.851Z,8.26
2022-11-03T19:25:48.274Z,8.32
2022-11-03T19:30:57.768Z,8.34
2022-11-03T19:36:03.109Z,8.36
2022-11-03T19:41:32.331Z,8.37
2022-11-03T19:46:36.581Z,8.36
2022-11-03T19:51:40.259Z,8.35
2022-11-03T19:56:47.068Z,8.37
2022-11-03T20:01:51.982Z,8.39
2022-11-03T20:06:57.024Z,8.42
2022-11-03T20:12:05.161Z,8.43
2022-11-03T20:17:22.068Z,8.43
2022-11-03T20:22:30.283Z,8.47
2022-11-03T20:27:34.037Z,8.44
2022-11-03T20:32:37.827Z,8.42
2022-11-03T20:37:44.178Z,8.38
2022-11-03T20:42:51.211Z,8.30
2022-11-03T20:47:56.167Z,8.27
2022-11-03T20:53:02.552Z,8.24
2022-11-03T20:58:09.722Z,8.23
2022-11-03T21:03:37.316Z,8.27
2022-11-03T21:08:41.822Z,8.29
2022-11-03T21:13:45.886Z,8.29
2022-11-03T21:19:08.605Z,8.28
2022-11-03T21:24:13.426Z,8.26
2022-11-03T21:29:33.003Z,8.28
2022-11-03T21:34:41.891Z,8.27
2022-11-03T21:39:46.016Z,8.28
2022-11-03T21:44:49.733Z,8.30
2022-11-03T21:49:53.724Z,8.31
2022-11-03T21:55:05.706Z,8.32
2022-11-03T22:00:12.310Z,8.32
2022-11-03T22:05:15.719Z,8.34
2022-11-03T22:10:19.403Z,8.37
2022-11-03T22:15:41.583Z,8.35
2022-11-03T22:21:03.742Z,8.32
2022-11-03T22:26:33.344Z,8.30
2022-11-03T22:31:43.248Z,8.29
2022-11-03T22:36:46.836Z,8.32
2022-11-03T22:42:09.064Z,8.35
2022-11-03T22:47:14.567Z,8.41
2022-11-03T22:52:21.272Z,8.42
2022-11-03T22:57:24.654Z,8.41
2022-11-03T23:02:27.884Z,8.44
2022-11-03T23:07:35.837Z,8.43
2022-11-03T23:12:42.085Z,8.40
2022-11-03T23:18:04.452Z,8.36
2022-11-03T23:23:08.275Z,8.28
2022-11-03T23:28:11.879Z,8.27
2022-11-03T23:33:15.063Z,8.27
2022-11-03T23:38:18.276Z,8.27
2022-11-03T23:43:21.566Z,8.25
2022-11-03T23:48:43.427Z,8.24
2022-11-03T23:53:47.896Z,8.25
2022-11-03T23:58:52.224Z,8.24
